Flight Track Log - Related Links

Times and Time Zones

All times are in EDT time to prevent confusion due to time zone crossing. See the FLG4222 flight status page for this flight to view local times or setup timezone preferences in your user account.

Time Position Orientation Groundspeed Altitude Reporting Facility
EDT Latitude Longitude Course Direction KTS MPH feet Rate Location/Type
Tue 10:04:54 AM 42.2239 -83.3528 30° Northeast 152 175 1,300  Level Cleveland Center
Tue 10:05:31 AM 42.2486 -83.3336 30° Northeast 197 227 2,300 1,630 Climbing Cleveland Center
Tue 10:06:15 AM 42.2750 -83.3075 36° Northeast 221 254 3,500 2,262 Climbing Cleveland Center
Tue 10:06:32 AM 42.3025 -83.2847 31° Northeast 254 292 4,600 2,806 Climbing Cleveland Center
Tue 10:07:17 AM 42.3450 -83.2494 32° Northeast 257 296 6,400 2,800 Climbing Cleveland Center
Tue 10:07:32 AM 42.3619 -83.2197 52° Northeast 291 335 7,400 3,000 Climbing Cleveland Center
Tue 10:08:19 AM 42.3711 -83.1389 81° East 295 339 9,500 1,691 Climbing Cleveland Center
Tue 10:09:22 AM 42.3706 -83.0144 90° East 321 369 10,500 960 Climbing Cleveland Center
Tue 10:10:24 AM 42.3697 -82.8692 90° East 374 430 11,500 968 Climbing Cleveland Center
Tue 10:11:26 AM 42.3683 -82.7158 91° East 400 460 12,500 1,065 Climbing Cleveland Center
Tue 10:12:28 AM 42.3678 -82.5550 90° East 419 482 13,700 1,258 Climbing Cleveland Center
Tue 10:13:30 AM 42.3639 -82.3639 92° East 425 489 15,100 1,161 Climbing Cleveland Center
Tue 10:14:32 AM 42.3575 -82.2025 93° East 430 495 16,100 1,016 Climbing Cleveland Center
Tue 10:15:34 AM 42.3503 -82.0383 93° East 434 499 17,200 968 Climbing Cleveland Center
Tue 10:16:36 AM 42.3433 -81.8719 93° East 438 504 18,100 919 Climbing Cleveland Center
Tue 10:17:38 AM 42.3358 -81.7056 93° East 439 505 19,100 968 Climbing Cleveland Center
Tue 10:18:40 AM 42.3283 -81.5378 93° East 441 507 20,100 919 Climbing Cleveland Center
Tue 10:19:42 AM 42.3208 -81.3692 93° East 443 510 21,000 871 Climbing Cleveland Center
Tue 10:20:44 AM 42.3106 -81.1697 94° East 450 518 21,900 871 Climbing Cleveland Center
Tue 10:21:46 AM 42.3008 -80.9986 94° East 452 520 22,800 532 Climbing Cleveland Center
Tue 10:22:48 AM 42.2931 -80.8244 93° East 457 526 23,000 97 Climbing Cleveland Center
Tue 10:23:50 AM 42.2828 -80.6464 94° East 467 537 23,000  Level Cleveland Center
Tue 10:24:52 AM 42.2736 -80.4639 94° East 479 551 23,000  Level Cleveland Center
Tue 10:25:55 AM 42.2625 -80.2797 95° East 487 560 23,000  Level Cleveland Center
Tue 10:26:57 AM 42.2514 -80.0947 95° East 490 564 23,000  Level Cleveland Center
Tue 10:27:59 AM 42.2381 -79.8814 95° East 491 565 23,000  Level Cleveland Center
Tue 10:29:01 AM 42.2272 -79.6975 94° East 493 567 23,000  Level Cleveland Center
Tue 10:30:03 AM 42.2139 -79.5167 96° East 489 563 23,000  Level Cleveland Center
Tue 10:31:05 AM 42.2025 -79.3333 95° East 491 565 23,000  Level Cleveland Center
Tue 10:32:07 AM 42.1906 -79.1503 95° East 492 566 23,000  Level Cleveland Center
Tue 10:33:09 AM 42.1919 -78.9314 89° East 488 562 23,000  Level Cleveland Center
Tue 10:34:11 AM 42.1953 -78.7492 89° East 487 560 23,000  Level Cleveland Center
Tue 10:35:13 AM 42.1975 -78.5675 89° East 487 560 23,000  Level Cleveland Center
Tue 10:36:15 AM 42.2008 -78.3850 89° East 489 563 23,000  Level Cleveland Center
Tue 10:37:17 AM 42.2031 -78.2008 89° East 492 566 23,000  Level Cleveland Center
Tue 10:38:19 AM 42.2050 -78.0231 89° East 479 551 23,000  Level Cleveland Center
Tue 10:39:22 AM 42.2081 -77.8064 89° East 481 554 23,000 -432 Level Cleveland Center
Tue 10:40:24 AM 42.2058 -77.6181 91° East 497 572 22,100 -1,306 Descending Cleveland Center
Tue 10:41:26 AM 42.2078 -77.4447 89° East 464 534 20,300 -1,887 Descending Cleveland Center
Tue 10:42:28 AM 42.2094 -77.2783 89° East 448 516 18,200 -1,790 Descending Cleveland Center
Tue 10:43:30 AM 42.2092 -77.0906 90° East 437 503 16,600 -1,790 Descending Cleveland Center
Tue 10:44:32 AM 42.2100 -76.9358 90° East 416 479 14,500 -1,984 Descending Cleveland Center
Tue 10:45:34 AM 42.2086 -76.7883 91° East 398 458 12,500 -1,742 Descending Cleveland Center
Tue 10:46:36 AM 42.2053 -76.6475 92° East 384 442 10,900 -1,452 Descending Cleveland Center
Tue 10:47:38 AM 42.2050 -76.5364 90° East 322 371 9,500 -1,597 Descending Cleveland Center
Tue 10:48:40 AM 42.2039 -76.4303 91° East 292 336 7,600 -1,935 Descending Cleveland Center
Tue 10:49:42 AM 42.1989 -76.3003 93° East 290 334 5,500 -1,688 Descending Cleveland Center
Tue 10:50:48 AM 42.1928 -76.2008 95° East 275 316 4,000 -714 Descending New York Center
Tue 10:51:48 AM 42.1775 -76.1211 104° East 245 282 4,000  Level New York Center
Tue 10:52:48 AM 42.1386 -76.0592 130° Southeast 215 247 4,000  Level New York Center
Tue 10:53:48 AM 42.1142 -76.0014 120° Southeast 201 231 4,000 -400 Level New York Center
Tue 10:54:48 AM 42.1372 -75.9500 59° Northeast 149 171 3,200 -850 Descending New York Center
Tue 10:55:48 AM 42.1728 -75.9500 360° North 99 114 2,300 -600 Descending New York Center
Tue 10:56:48 AM 42.2033 -75.9636 342° North 99 114 2,000 -300 Descending New York Center

Login

Don't have an account? Register now (free) for customized features, flight alerts, and more!